Time;durP1;ratioP1;P1;durP2;ratioP2;P2;SDS_P1;SDS_P2;PMS_P1;PMS_P2;Temp;Humidity;BMP_temperature;BMP_pressure;BME280_temperature;BME280_humidity;BME280_pressure;Samples;Min_cycle;Max_cycle;Signal;HPM_P1;HPM_P2
2023/07/11 14:54:26;;;;;;;7.90;6.35;;;;;;;;;;6178785;22;884788;-77
2023/07/11 14:56:53;;;;;;;8.52;6.57;;;;;;;;;;6129779;23;1308980;-82
2023/07/11 14:59:26;;;;;;;8.75;6.05;;;;;;;;;;6159444;23;20029;-83
2023/07/11 15:01:53;;;;;;;9.32;6.50;;;;;;;;;;6158794;23;20093;-84
2023/07/11 15:04:21;;;;;;;8.73;6.82;;;;;;;;;;6144756;23;20049;-79
2023/07/11 15:06:48;;;;;;;8.43;6.82;;;;;;;;;;6133029;23;20077;-78
2023/07/11 15:09:14;;;;;;;7.70;6.90;;;;;;;;;;6134406;23;20028;-81
2023/07/11 15:11:47;;;;;;;7.82;5.97;;;;;;;;;;6133665;23;20056;-82
2023/07/11 15:14:15;;;;;;;9.80;6.85;;;;;;;;;;6132418;23;20026;-81
2023/07/11 15:16:43;;;;;;;8.02;6.70;;;;;;;;;;6130839;23;20494;-79
2023/07/11 15:19:17;;;;;;;7.88;6.38;;;;;;;;;;6132728;23;20018;-82
2023/07/11 15:25:24;;;;;;;7.25;5.90;;;;;;;;;;6140377;23;20052;-77
2023/07/11 15:27:52;;;;;;;7.05;6.35;;;;;;;;;;6130434;23;20014;-80
2023/07/11 15:30:19;;;;;;;9.82;5.55;;;;;;;;;;6134327;23;20017;-83
2023/07/11 15:32:46;;;;;;;7.13;5.78;;;;;;;;;;6131969;23;20026;-77
2023/07/11 15:35:18;;;;;;;5.53;4.32;;;;;;;;;;6130615;23;20498;-76
2023/07/11 15:37:45;;;;;;;7.68;4.68;;;;;;;;;;6132692;23;20359;-77
2023/07/11 15:40:16;;;;;;;7.45;4.60;;;;;;;;;;6143667;23;20035;-78
2023/07/11 15:42:43;;;;;;;7.47;4.35;;;;;;;;;;6131012;23;20422;-79
2023/07/11 15:45:24;;;;;;;7.15;4.50;;;;;;;;;;6131321;23;20482;-80
2023/07/11 15:47:51;;;;;;;5.97;4.90;;;;;;;;;;6129546;23;20018;-78
2023/07/11 15:50:23;;;;;;;6.68;3.80;;;;;;;;;;6129668;23;20029;-78
2023/07/11 15:52:50;;;;;;;6.05;4.32;;;;;;;;;;6132002;23;20134;-77
2023/07/11 15:55:19;;;;;;;7.28;4.35;;;;;;;;;;6128294;23;20037;-78
2023/07/11 15:57:47;;;;;;;;;;;;;;;;;;6133012;23;20021;-83
2023/07/11 16:00:17;;;;;;;7.03;4.28;;;;;;;;;;6129737;23;19952;-82
2023/07/11 16:02:44;;;;;;;7.68;4.72;;;;;;;;;;6135599;23;20033;-82
2023/07/11 16:05:12;;;;;;;6.50;4.75;;;;;;;;;;6136865;23;20029;-84
2023/07/11 16:07:39;;;;;;;7.90;4.60;;;;;;;;;;6135887;23;20489;-78
2023/07/11 16:10:29;;;;;;;6.32;4.40;;;;;;;;;;6133203;23;20408;-77
2023/07/11 16:12:56;;;;;;;7.13;4.25;;;;;;;;;;6130578;23;20022;-80
2023/07/11 16:15:29;;;;;;;6.07;3.85;;;;;;;;;;6131113;23;20026;-77
2023/07/11 16:17:55;;;;;;;5.30;3.67;;;;;;;;;;6129033;23;20100;-82
2023/07/11 16:20:25;;;;;;;6.15;4.20;;;;;;;;;;6128633;23;20077;-78
2023/07/11 16:22:52;;;;;;;7.03;4.00;;;;;;;;;;6130001;23;20395;-78
2023/07/11 16:25:19;;;;;;;6.13;3.80;;;;;;;;;;6131073;23;20336;-76
2023/07/11 16:27:52;;;;;;;5.00;4.03;;;;;;;;;;6131165;23;20022;-80
2023/07/11 16:30:21;;;;;;;6.50;3.88;;;;;;;;;;6134299;23;20026;-79
2023/07/11 16:32:50;;;;;;;4.97;3.90;;;;;;;;;;6132757;23;20092;-80
2023/07/11 16:35:19;;;;;;;6.93;3.95;;;;;;;;;;6136810;23;20046;-79
2023/07/11 16:37:48;;;;;;;6.68;4.25;;;;;;;;;;6129887;23;20093;-78
2023/07/11 16:40:20;;;;;;;7.05;4.57;;;;;;;;;;6128557;23;20407;-79
2023/07/11 16:42:48;;;;;;;6.28;4.32;;;;;;;;;;6129221;23;20022;-77
2023/07/11 16:45:15;;;;;;;5.47;4.03;;;;;;;;;;6128866;23;20022;-75
2023/07/11 16:47:43;;;;;;;7.20;4.22;;;;;;;;;;6128894;23;20105;-76
2023/07/11 16:50:21;;;;;;;5.53;4.07;;;;;;;;;;6127775;23;20056;-77
2023/07/11 16:52:48;;;;;;;5.70;3.95;;;;;;;;;;6128796;23;20026;-82
2023/07/11 16:55:15;;;;;;;4.57;3.72;;;;;;;;;;6128904;23;20022;-77
2023/07/11 16:57:42;;;;;;;6.00;3.83;;;;;;;;;;6129731;23;20022;-77
2023/07/11 17:00:18;;;;;;;5.13;4.20;;;;;;;;;;6131683;23;20540;-81
2023/07/11 17:02:46;;;;;;;5.65;4.13;;;;;;;;;;6130261;23;20042;-76
2023/07/11 17:05:13;;;;;;;6.93;4.35;;;;;;;;;;6131261;23;20467;-78
2023/07/11 17:07:41;;;;;;;8.60;5.32;;;;;;;;;;6134331;23;20504;-78
2023/07/11 17:10:09;;;;;;;6.87;4.27;;;;;;;;;;6132002;23;20022;-77
2023/07/11 17:12:37;;;;;;;7.10;4.22;;;;;;;;;;6134594;23;20033;-76
2023/07/11 17:15:05;;;;;;;5.80;4.72;;;;;;;;;;6133437;23;20037;-81
2023/07/11 17:17:32;;;;;;;6.10;4.50;;;;;;;;;;6132596;23;20347;-78
2023/07/11 17:19:59;;;;;;;7.28;5.65;;;;;;;;;;6133136;23;20029;-78
2023/07/11 17:22:26;;;;;;;7.00;5.18;;;;;;;;;;6132218;23;20057;-78
2023/07/11 17:24:54;;;;;;;6.32;4.53;;;;;;;;;;6130516;23;20091;-79
2023/07/11 17:27:24;;;;;;;6.90;4.90;;;;;;;;;;6134439;23;20026;-79
2023/07/11 17:29:52;;;;;;;9.18;4.55;;;;;;;;;;6130778;23;20135;-78
2023/07/11 17:32:21;;;;;;;10.27;5.05;;;;;;;;;;6129767;23;20082;-80
2023/07/11 17:34:48;;;;;;;7.20;4.70;;;;;;;;;;6130787;23;20073;-78
2023/07/11 17:37:22;;;;;;;6.80;4.97;;;;;;;;;;6129988;23;20054;-77
2023/07/11 17:39:49;;;;;;;6.45;4.80;;;;;;;;;;6131845;23;20662;-77
2023/07/11 17:42:17;;;;;;;8.05;5.20;;;;;;;;;;6129199;23;20529;-77
2023/07/11 17:44:45;;;;;;;9.18;4.80;;;;;;;;;;6130379;23;20022;-77
2023/07/11 17:47:14;;;;;;;7.13;5.10;;;;;;;;;;6130569;23;20068;-80
2023/07/11 17:49:41;;;;;;;6.88;4.93;;;;;;;;;;6129857;23;20070;-78
2023/07/11 17:52:14;;;;;;;6.75;4.70;;;;;;;;;;6132024;23;20029;-75
2023/07/11 17:54:40;;;;;;;6.82;4.97;;;;;;;;;;6130910;23;20022;-77
2023/07/11 17:57:11;;;;;;;8.82;4.72;;;;;;;;;;6129023;23;20026;-81
2023/07/11 17:59:39;;;;;;;7.15;5.00;;;;;;;;;;6129379;23;20022;-79
2023/07/11 18:02:16;;;;;;;6.87;5.10;;;;;;;;;;6129446;23;20018;-80
2023/07/11 18:04:42;;;;;;;6.30;4.70;;;;;;;;;;6126669;23;20419;-76
2023/07/11 18:07:16;;;;;;;6.80;5.55;;;;;;;;;;6128390;23;20426;-75
2023/07/11 18:09:43;;;;;;;8.40;5.10;;;;;;;;;;6129467;23;20018;-80
2023/07/11 18:12:17;;;;;;;5.72;5.07;;;;;;;;;;6129407;23;20029;-76
2023/07/11 18:14:45;;;;;;;8.13;5.38;;;;;;;;;;6125530;23;20482;-76
2023/07/11 18:17:14;;;;;;;9.35;5.40;;;;;;;;;;6125648;23;20029;-76
2023/07/11 18:19:41;;;;;;;7.35;5.72;;;;;;;;;;6126865;23;20041;-76
2023/07/11 18:22:13;;;;;;;8.95;5.60;;;;;;;;;;6128045;23;20046;-78
2023/07/11 18:24:40;;;;;;;9.02;6.60;;;;;;;;;;6130728;23;20482;-77
2023/07/11 18:27:14;;;;;;;7.00;5.35;;;;;;;;;;6127217;23;20037;-79
2023/07/11 18:29:40;;;;;;;8.98;6.97;;;;;;;;;;6130254;23;20018;-77
2023/07/11 18:32:17;;;;;;;7.55;6.05;;;;;;;;;;6130149;23;20056;-78
2023/07/11 18:34:44;;;;;;;8.75;6.30;;;;;;;;;;6125028;23;20475;-77
2023/07/11 18:37:12;;;;;;;8.20;5.32;;;;;;;;;;6128007;23;20093;-77
2023/07/11 18:39:39;;;;;;;9.07;7.55;;;;;;;;;;6127654;23;20322;-77
2023/07/11 18:42:12;;;;;;;10.82;9.48;;;;;;;;;;6127802;23;20026;-78
2023/07/11 18:44:39;;;;;;;11.07;7.53;;;;;;;;;;6127257;23;20049;-77
2023/07/11 18:47:16;;;;;;;8.43;5.47;;;;;;;;;;6132747;23;20022;-78
2023/07/11 18:49:44;;;;;;;6.97;6.22;;;;;;;;;;6129263;23;20092;-77
2023/07/11 18:52:14;;;;;;;7.40;6.70;;;;;;;;;;6126406;23;20018;-76
2023/07/11 18:54:41;;;;;;;8.40;7.15;;;;;;;;;;6133440;23;20018;-80
2023/07/11 18:57:11;;;;;;;8.85;7.78;;;;;;;;;;6138790;23;20026;-80
2023/07/11 18:59:38;;;;;;;11.13;8.73;;;;;;;;;;6136243;23;20085;-81
2023/07/11 19:02:13;;;;;;;10.35;7.78;;;;;;;;;;6137437;23;20029;-81
2023/07/11 19:04:42;;;;;;;9.18;7.05;;;;;;;;;;6140299;23;20021;-82
2023/07/11 19:07:11;;;;;;;9.35;6.22;;;;;;;;;;6137927;23;20022;-79
2023/07/11 19:09:37;;;;;;;7.03;5.68;;;;;;;;;;6140643;23;20049;-78
2023/07/11 19:12:22;;;;;;;7.40;5.85;;;;;;;;;;6139100;23;20522;-80
2023/07/11 19:14:49;;;;;;;12.18;7.72;;;;;;;;;;6138624;23;20039;-78
2023/07/11 19:17:34;;;;;;;15.30;8.18;;;;;;;;;;6141572;23;20026;-79
2023/07/11 19:20:16;;;;;;;18.15;13.85;;;;;;;;;;6138717;23;20022;-78
2023/07/11 19:22:43;;;;;;;14.02;8.93;;;;;;;;;;6140395;23;20022;-82
2023/07/11 19:25:13;;;;;;;11.63;8.82;;;;;;;;;;6136181;23;20021;-78
2023/07/11 19:27:39;;;;;;;13.32;11.82;;;;;;;;;;6138100;23;20101;-81
2023/07/11 19:30:17;;;;;;;13.32;11.98;;;;;;;;;;6139208;23;20032;-80
2023/07/11 19:32:45;;;;;;;16.58;10.75;;;;;;;;;;6134087;23;20026;-80
2023/07/11 19:35:13;;;;;;;13.45;10.32;;;;;;;;;;6135173;23;20022;-81
2023/07/11 19:37:43;;;;;;;19.10;10.45;;;;;;;;;;6138623;23;20101;-82
2023/07/11 19:40:16;;;;;;;11.90;10.70;;;;;;;;;;6136053;23;20363;-80
2023/07/11 19:42:45;;;;;;;11.13;9.30;;;;;;;;;;6131733;23;20029;-78
2023/07/11 19:45:13;;;;;;;12.57;9.82;;;;;;;;;;6132476;23;20028;-80
2023/07/11 19:47:40;;;;;;;18.23;10.88;;;;;;;;;;6130217;23;20025;-81
2023/07/11 19:50:31;;;;;;;14.80;11.02;;;;;;;;;;6130487;23;20026;-81
2023/07/11 19:53:01;;;;;;;14.40;9.95;;;;;;;;;;6132006;23;20410;-82
2023/07/11 19:55:28;;;;;;;11.20;10.00;;;;;;;;;;6133783;23;20037;-78
2023/07/11 19:57:56;;;;;;;12.23;9.65;;;;;;;;;;6134438;23;20033;-79
2023/07/11 20:00:32;;;;;;;13.05;10.27;;;;;;;;;;6135341;23;20057;-84
2023/07/11 20:02:59;;;;;;;14.15;10.20;;;;;;;;;;6129055;23;20073;-78
2023/07/11 20:05:28;;;;;;;11.95;10.35;;;;;;;;;;6123856;23;20022;-79
2023/07/11 20:07:55;;;;;;;12.98;9.63;;;;;;;;;;6129957;23;20053;-80
2023/07/11 20:10:33;;;;;;;12.57;10.55;;;;;;;;;;6125752;23;20412;-79
2023/07/11 20:13:01;;;;;;;11.32;10.10;;;;;;;;;;6123730;23;20022;-79
2023/07/11 20:15:28;;;;;;;12.45;10.55;;;;;;;;;;6126918;23;20100;-81
2023/07/11 20:17:54;;;;;;;13.45;10.88;;;;;;;;;;6128110;23;20582;-80
2023/07/11 20:20:24;;;;;;;12.02;10.55;;;;;;;;;;6128694;23;20033;-80
2023/07/11 20:22:52;;;;;;;13.57;11.25;;;;;;;;;;6127787;23;20057;-76
2023/07/11 20:25:20;;;;;;;16.83;11.63;;;;;;;;;;6127971;23;20220;-80
2023/07/11 20:27:48;;;;;;;12.48;10.07;;;;;;;;;;6125376;23;20110;-74
2023/07/11 20:30:16;;;;;;;16.88;12.50;;;;;;;;;;6126445;23;20529;-82
2023/07/11 20:32:43;;;;;;;19.48;11.90;;;;;;;;;;6131334;23;20077;-80
2023/07/11 20:35:11;;;;;;;18.13;11.25;;;;;;;;;;6130960;23;20108;-78
2023/07/11 20:37:38;;;;;;;19.90;10.55;;;;;;;;;;6127781;23;20079;-77
2023/07/11 20:40:22;;;;;;;13.88;9.55;;;;;;;;;;6131890;23;20023;-81
2023/07/11 20:42:50;;;;;;;15.15;9.20;;;;;;;;;;6131342;23;20021;-78
2023/07/11 20:45:17;;;;;;;13.38;9.73;;;;;;;;;;6129504;23;20045;-82
2023/07/11 20:47:45;;;;;;;11.68;9.52;;;;;;;;;;6130397;23;20046;-79
2023/07/11 20:50:21;;;;;;;10.87;8.87;;;;;;;;;;6130667;23;20105;-80
2023/07/11 20:52:52;;;;;;;14.75;10.05;;;;;;;;;;6132495;23;20252;-81
2023/07/11 20:55:23;;;;;;;11.95;10.55;;;;;;;;;;6132475;23;20024;-78
2023/07/11 20:57:50;;;;;;;12.23;8.48;;;;;;;;;;6134031;23;20100;-79
2023/07/11 21:00:23;;;;;;;11.20;9.07;;;;;;;;;;6130372;23;20049;-82
2023/07/11 21:02:51;;;;;;;14.55;10.55;;;;;;;;;;6130022;23;20022;-78
2023/07/11 21:05:21;;;;;;;14.93;10.77;;;;;;;;;;6126792;23;20097;-77
2023/07/11 21:07:49;;;;;;;12.40;10.15;;;;;;;;;;6126315;23;20045;-76
2023/07/11 21:10:22;;;;;;;14.32;10.43;;;;;;;;;;6127655;23;20022;-78
2023/07/11 21:12:48;;;;;;;10.50;9.40;;;;;;;;;;6126563;23;20276;-83
2023/07/11 21:15:16;;;;;;;11.63;9.23;;;;;;;;;;6128708;23;20026;-78
2023/07/11 21:17:42;;;;;;;11.00;8.38;;;;;;;;;;6129677;23;20049;-78
2023/07/11 21:20:16;;;;;;;11.88;9.50;;;;;;;;;;6131302;23;20101;-77
2023/07/11 21:22:43;;;;;;;18.17;9.65;;;;;;;;;;6127436;23;20529;-76
2023/07/11 21:25:10;;;;;;;14.63;9.15;;;;;;;;;;6130655;23;20057;-79
2023/07/11 21:27:38;;;;;;;11.90;9.02;;;;;;;;;;6131848;23;20072;-78
2023/07/11 21:30:20;;;;;;;11.70;10.38;;;;;;;;;;6126498;23;20110;-78
2023/07/11 21:32:46;;;;;;;13.70;12.30;;;;;;;;;;6126427;23;20527;-77
2023/07/11 21:35:14;;;;;;;10.98;9.60;;;;;;;;;;6123963;23;20732;-77
2023/07/11 21:37:40;;;;;;;9.73;8.70;;;;;;;;;;6124449;23;20101;-77
2023/07/11 21:40:17;;;;;;;10.93;8.90;;;;;;;;;;6125409;23;20406;-77
2023/07/11 21:42:45;;;;;;;11.90;9.40;;;;;;;;;;6125781;23;20056;-77
2023/07/11 21:45:12;;;;;;;12.63;11.52;;;;;;;;;;6135037;23;20041;-77
2023/07/11 21:47:38;;;;;;;40.40;8.82;;;;;;;;;;6134497;23;20673;-77
2023/07/11 21:50:40;;;;;;;41.85;7.50;;;;;;;;;;6126408;23;20096;-76
2023/07/11 21:53:10;;;;;;;21.77;4.32;;;;;;;;;;6122211;23;20073;-76
2023/07/11 21:55:38;;;;;;;14.10;3.25;;;;;;;;;;6122709;23;20097;-77
2023/07/11 21:58:06;;;;;;;11.18;3.28;;;;;;;;;;6123015;23;20028;-77
2023/07/11 22:00:40;;;;;;;13.05;3.53;;;;;;;;;;6122623;23;20018;-76
2023/07/11 22:03:07;;;;;;;7.60;2.70;;;;;;;;;;6122646;23;20751;-76
2023/07/11 22:05:34;;;;;;;9.05;3.00;;;;;;;;;;6124021;23;20049;-78
2023/07/11 22:08:01;;;;;;;5.82;2.30;;;;;;;;;;6122815;23;20053;-77
2023/07/11 22:10:31;;;;;;;5.97;2.60;;;;;;;;;;6122642;23;20018;-77
2023/07/11 22:12:59;;;;;;;8.93;2.40;;;;;;;;;;6121709;23;20053;-77
2023/07/11 22:15:28;;;;;;;7.43;2.17;;;;;;;;;;6122056;23;20045;-76
2023/07/11 22:17:56;;;;;;;4.93;1.85;;;;;;;;;;6123213;23;20061;-77
2023/07/11 22:20:25;;;;;;;7.30;2.25;;;;;;;;;;6122459;23;20494;-77
2023/07/11 22:22:52;;;;;;;8.13;2.35;;;;;;;;;;6123483;23;20092;-76
2023/07/11 22:25:19;;;;;;;7.43;2.50;;;;;;;;;;6123639;23;20145;-76
2023/07/11 22:27:45;;;;;;;5.75;2.38;;;;;;;;;;6122583;23;20135;-77
2023/07/11 22:30:25;;;;;;;8.27;2.70;;;;;;;;;;6122665;23;20450;-76
2023/07/11 22:32:54;;;;;;;6.53;2.70;;;;;;;;;;6122049;23;20093;-76
2023/07/11 22:35:22;;;;;;;6.07;2.57;;;;;;;;;;6122610;23;20022;-76
2023/07/11 22:37:49;;;;;;;6.63;3.03;;;;;;;;;;6122655;23;20463;-78
2023/07/11 22:40:34;;;;;;;7.68;3.83;;;;;;;;;;6126520;23;20033;-76
2023/07/11 22:43:02;;;;;;;8.77;3.38;;;;;;;;;;6122344;23;20049;-77
2023/07/11 22:45:30;;;;;;;7.30;2.90;;;;;;;;;;6122176;23;20502;-75
2023/07/11 22:47:59;;;;;;;7.70;3.25;;;;;;;;;;6122262;23;20018;-75
2023/07/11 22:50:36;;;;;;;7.80;2.67;;;;;;;;;;6122472;23;20111;-77
2023/07/11 22:53:04;;;;;;;6.63;3.53;;;;;;;;;;6122140;23;20384;-74
2023/07/11 22:55:33;;;;;;;6.03;3.20;;;;;;;;;;6121923;23;20104;-75
2023/07/11 22:58:00;;;;;;;7.30;3.05;;;;;;;;;;6122730;23;20096;-75
2023/07/11 23:00:30;;;;;;;7.93;2.85;;;;;;;;;;6121780;23;20022;-76
2023/07/11 23:02:58;;;;;;;7.70;2.80;;;;;;;;;;6121782;23;20025;-74
2023/07/11 23:05:26;;;;;;;6.00;2.90;;;;;;;;;;6122444;23;20029;-75
2023/07/11 23:07:53;;;;;;;6.47;2.60;;;;;;;;;;6124408;23;20018;-76
2023/07/11 23:10:26;;;;;;;5.72;2.70;;;;;;;;;;6123015;23;20299;-76
2023/07/11 23:12:54;;;;;;;6.97;2.75;;;;;;;;;;6125007;23;20538;-73
2023/07/11 23:15:22;;;;;;;5.50;2.80;;;;;;;;;;6126161;23;20470;-75
2023/07/11 23:17:49;;;;;;;8.25;3.08;;;;;;;;;;6125407;23;20049;-75
2023/07/11 23:20:35;;;;;;;4.97;2.70;;;;;;;;;;6125020;23;20534;-75
2023/07/11 23:23:02;;;;;;;8.63;3.40;;;;;;;;;;6125275;23;20102;-75
2023/07/11 23:25:30;;;;;;;7.85;3.22;;;;;;;;;;6125649;23;20022;-77
2023/07/11 23:27:58;;;;;;;5.68;4.18;;;;;;;;;;6125038;23;20018;-76
2023/07/11 23:30:28;;;;;;;9.15;3.95;;;;;;;;;;6125214;23;20022;-75
2023/07/11 23:32:57;;;;;;;8.80;3.67;;;;;;;;;;6125026;23;20022;-76
2023/07/11 23:35:29;;;;;;;6.90;3.97;;;;;;;;;;6124812;23;20017;-76
2023/07/11 23:37:57;;;;;;;6.35;3.88;;;;;;;;;;6124945;23;20026;-77
2023/07/11 23:40:31;;;;;;;7.60;4.00;;;;;;;;;;6125197;23;20081;-77
2023/07/11 23:42:58;;;;;;;8.27;4.55;;;;;;;;;;6124521;23;20029;-77
2023/07/11 23:45:26;;;;;;;7.50;4.60;;;;;;;;;;6124272;23;20532;-76
2023/07/11 23:47:53;;;;;;;6.60;3.97;;;;;;;;;;6124283;23;20471;-76
2023/07/11 23:50:21;;;;;;;5.57;3.67;;;;;;;;;;6124539;23;20103;-77
2023/07/11 23:52:49;;;;;;;8.50;3.30;;;;;;;;;;6124703;23;20025;-77
2023/07/11 23:55:16;;;;;;;9.32;3.50;;;;;;;;;;6125148;23;20025;-76
2023/07/11 23:57:43;;;;;;;5.40;2.75;;;;;;;;;;6124131;23;20044;-76
